Mont Saint Michel — FNMT — position and weather

sailwx.info

Track history (hours):
 
Tides and Currents Weather Stations Pressure Air Temp Water Temp Dewpoint Dewpoint Depression Visibility Wind Speed Wind Dir Waves Ship Positions

Mont Saint Michel

Last reported at 2016-Sep-27 10:33 UTC. Time now 2016-Sep-27 12:10 UTC.
Position N 49°58' W 000°34'.

Length 173 m; beam 29 m.

Type: Ship. MMSI: 227023100.

Date/timePositionNaut miles runAvg speedWind from/ knotsBaromVisibWave heightAir tempDewpointWater temp
2016-Sep-27 10:33N 49°58' W 000°34'2 0.2
2016-Sep-27 00:33N 49°56' W 000°34'4010.1
2016-Sep-26 20:34N 49°17' W 000°15'0 0.0
2016-Sep-26 19:33N 49°17' W 000°15'7317.2
2016-Sep-26 15:19N 50°26' W 000°54'2413.6
2016-Sep-26 13:33N 50°49' W 001°06'4 1.9
2016-Sep-26 11:34N 50°45' W 001°05'5418.1
2016-Sep-26 08:33N 49°54' W 000°34'11 1.8
2016-Sep-26 02:33N 49°44' W 000°30'1515.1
2016-Sep-26 01:33N 49°59' W 000°36'2214.9
2016-Sep-26 00:05N 50°19' W 000°48'3212.5
2016-Sep-25 21:33N 50°49' W 001°06'4210.6
2016-Sep-25 17:34N 50°09' W 000°42'1918.8
2016-Sep-25 16:34N 49°52' W 000°32'1918.7
2016-Sep-25 15:34N 49°34' W 000°22'1717.3
2016-Sep-25 14:33N 49°17' W 000°15'4 2.1
2016-Sep-25 12:33N 49°21' W 000°15'2120.7
2016-Sep-25 11:33N 49°41' W 000°27'1919.1
2016-Sep-25 10:34N 49°58' W 000°38'2919.0
2016-Sep-25 09:03N 50°25' W 000°53'2516.6
2016-Sep-25 07:33N 50°49' W 001°07'13 4.3
2016-Sep-25 04:33N 50°37' W 000°58'4310.6
2016-Sep-25 00:34N 49°57' W 000°35'2211.2
2016-Sep-24 22:33N 49°36' W 000°23'1212.5
2016-Sep-24 21:34N 49°24' W 000°17'7 3.4
2016-Sep-24 19:33N 49°17' W 000°15'1110.8
2016-Sep-24 18:33N 49°28' W 000°19'1919.3
2016-Sep-24 17:33N 49°46' W 000°29'2019.5
2016-Sep-24 16:33N 50°04' W 000°39'3819.0
2016-Sep-24 14:34N 50°40' W 000°60'10 4.8
2016-Sep-24 12:33N 50°49' W 001°06'2110.6
2016-Sep-24 10:33N 50°28' W 000°57'1918.7
2016-Sep-24 09:33N 50°11' W 000°47'43 7.1
2016-Sep-24 03:33N 49°31' W 000°21'1716.8
2016-Sep-24 02:33N 49°47' W 000°30'1514.6
2016-Sep-24 01:33N 50°01' W 000°37'1313.4
2016-Sep-24 00:33N 50°14' W 000°44'34 6.8
2016-Sep-23 19:33N 50°45' W 001°05'3818.9
2016-Sep-23 17:33N 50°10' W 000°42'2019.9
2016-Sep-23 16:33N 49°52' W 000°30'1717.1
2016-Sep-23 15:33N 49°35' W 000°21'19 9.3
2016-Sep-23 13:33N 49°17' W 000°15'7115.8
2016-Sep-23 09:04N 50°24' W 000°52'2610.4
2016-Sep-23 06:33N 50°49' W 001°06'12 5.9
2016-Sep-23 04:33N 50°38' W 000°59'1313.4
2016-Sep-23 03:33N 50°25' W 000°50'1311.5
2016-Sep-23 02:24N 50°13' W 000°43'911.2
2016-Sep-23 01:33N 50°04' W 000°38'1110.8
2016-Sep-23 00:33N 49°54' W 000°32'1110.8
2016-Sep-22 23:33N 49°44' W 000°27'28 9.2
2016-Sep-22 20:33N 49°17' W 000°15'9712.1
2016-Sep-22 12:33N 50°49' W 001°06'9712.1
2016-Sep-22 04:34N 49°17' W 000°15'1313.1
2016-Sep-22 03:33N 49°30' W 000°19'4013.3
2016-Sep-22 00:33N 50°07' W 000°45'1212.5
2016-Sep-21 23:33N 50°19' W 000°49'1414.0
2016-Sep-21 22:34N 50°32' W 000°56'18 5.9
2016-Sep-21 19:33N 50°49' W 001°06'20 6.6
2016-Sep-21 16:33N 50°30' W 000°55'7711.0
2016-Sep-21 09:33N 49°17' W 000°15'0 0.0
2016-Sep-21 08:34N 49°17' W 000°15'0 0.0
2016-Sep-21 05:33N 49°17' W 000°15'2412.1
2016-Sep-21 03:34N 49°41' W 000°25'1615.9
2016-Sep-21 02:34N 49°56' W 000°32'16 1.8
2016-Sep-20 17:33N 50°10' W 000°43'5618.7
2016-Sep-20 14:33N 49°18' W 000°15'0 0.2
2016-Sep-20 13:33N 49°17' W 000°15'3913.0
2016-Sep-20 10:33N 49°54' W 000°36'4120.7
2016-Sep-20 08:33N 50°33' W 000°55'1616.0
2016-Sep-20 07:33N 50°48' W 001°07'1 1.2
2016-Sep-20 06:33N 50°49' W 001°06'35 8.7
2016-Sep-20 02:33N 50°16' W 000°46'3511.8
2016-Sep-19 23:33N 49°43' W 000°26'27 6.7
2016-Sep-19 19:33N 49°17' W 000°15'1212.4
2016-Sep-19 18:33N 49°29' W 000°19'3819.1
2016-Sep-19 16:33N 50°05' W 000°42'3919.4
2016-Sep-19 14:34N 50°41' W 001°01'8 7.7
2016-Sep-19 13:33N 50°49' W 001°06'0 0.0
2016-Sep-19 12:33N 50°49' W 001°06'7 7.0
2016-Sep-19 11:33N 50°42' W 001°02'3819.1
2016-Sep-19 09:33N 50°07' W 000°38'3718.5
2016-Sep-19 07:33N 49°32' W 000°21'1515.0
2016-Sep-19 06:33N 49°17' W 000°15'19 6.4
2016-Sep-19 03:33N 49°36' W 000°22'1616.1
2016-Sep-19 02:33N 49°51' W 000°31'3718.3
2016-Sep-19 00:33N 50°26' W 000°51'10 1.9
2016-Sep-18 19:33N 50°16' W 000°50'5914.8
2016-Sep-18 15:33N 49°21' W 000°15'3 3.0
2016-Sep-18 14:33N 49°18' W 000°15'39 9.7
2016-Sep-18 10:33N 49°55' W 000°34'2220.4
2016-Sep-18 09:28N 50°16' W 000°46'3 0.4
2016-Sep-18 02:30N 50°13' W 000°47'1111.9
2016-Sep-18 01:33N 50°03' W 000°39'1211.8
2016-Sep-18 00:33N 49°52' W 000°32'2210.8
2016-Sep-17 22:33N 49°32' W 000°21'9 9.3
2016-Sep-17 21:33N 49°24' W 000°16'6 6.3
2016-Sep-17 20:33N 49°17' W 000°15'0 0.1
2016-Sep-17 19:16N 49°17' W 000°15'9717.0
2016-Sep-17 13:34N 50°49' W 001°06'0 0.0
2016-Sep-17 12:34N 50°49' W 001°06'  
Track history (hours):
 
Tides and Currents Weather Stations Pressure Air Temp Water Temp Dewpoint Dewpoint Depression Visibility Wind Speed Wind Dir Waves Ship Positions

Mont Saint Michel

Last reported at 2016-Sep-27 10:33 UTC. Time now 2016-Sep-27 12:10 UTC.
Position N 49°58' W 000°34'.

Length 173 m; beam 29 m.

Type: Ship. MMSI: 227023100.

Date/timePositionNaut miles runAvg speedWind from/ knotsBaromVisibWave heightAir tempDewpointWater temp
2016-Sep-27 10:33N 49°58' W 000°34'2 0.2
2016-Sep-27 00:33N 49°56' W 000°34'4010.1
2016-Sep-26 20:34N 49°17' W 000°15'0 0.0
2016-Sep-26 19:33N 49°17' W 000°15'7317.2
2016-Sep-26 15:19N 50°26' W 000°54'2413.6
2016-Sep-26 13:33N 50°49' W 001°06'4 1.9
2016-Sep-26 11:34N 50°45' W 001°05'5418.1
2016-Sep-26 08:33N 49°54' W 000°34'11 1.8
2016-Sep-26 02:33N 49°44' W 000°30'1515.1
2016-Sep-26 01:33N 49°59' W 000°36'2214.9
2016-Sep-26 00:05N 50°19' W 000°48'3212.5
2016-Sep-25 21:33N 50°49' W 001°06'4210.6
2016-Sep-25 17:34N 50°09' W 000°42'1918.8
2016-Sep-25 16:34N 49°52' W 000°32'1918.7
2016-Sep-25 15:34N 49°34' W 000°22'1717.3
2016-Sep-25 14:33N 49°17' W 000°15'4 2.1
2016-Sep-25 12:33N 49°21' W 000°15'2120.7
2016-Sep-25 11:33N 49°41' W 000°27'1919.1
2016-Sep-25 10:34N 49°58' W 000°38'2919.0
2016-Sep-25 09:03N 50°25' W 000°53'2516.6
2016-Sep-25 07:33N 50°49' W 001°07'13 4.3
2016-Sep-25 04:33N 50°37' W 000°58'4310.6
2016-Sep-25 00:34N 49°57' W 000°35'2211.2
2016-Sep-24 22:33N 49°36' W 000°23'1212.5
2016-Sep-24 21:34N 49°24' W 000°17'7 3.4
2016-Sep-24 19:33N 49°17' W 000°15'1110.8
2016-Sep-24 18:33N 49°28' W 000°19'1919.3
2016-Sep-24 17:33N 49°46' W 000°29'2019.5
2016-Sep-24 16:33N 50°04' W 000°39'3819.0
2016-Sep-24 14:34N 50°40' W 000°60'10 4.8
2016-Sep-24 12:33N 50°49' W 001°06'2110.6
2016-Sep-24 10:33N 50°28' W 000°57'1918.7
2016-Sep-24 09:33N 50°11' W 000°47'43 7.1
2016-Sep-24 03:33N 49°31' W 000°21'1716.8
2016-Sep-24 02:33N 49°47' W 000°30'1514.6
2016-Sep-24 01:33N 50°01' W 000°37'1313.4
2016-Sep-24 00:33N 50°14' W 000°44'34 6.8
2016-Sep-23 19:33N 50°45' W 001°05'3818.9
2016-Sep-23 17:33N 50°10' W 000°42'2019.9
2016-Sep-23 16:33N 49°52' W 000°30'1717.1
2016-Sep-23 15:33N 49°35' W 000°21'19 9.3
2016-Sep-23 13:33N 49°17' W 000°15'7115.8
2016-Sep-23 09:04N 50°24' W 000°52'2610.4
2016-Sep-23 06:33N 50°49' W 001°06'12 5.9
2016-Sep-23 04:33N 50°38' W 000°59'1313.4
2016-Sep-23 03:33N 50°25' W 000°50'1311.5
2016-Sep-23 02:24N 50°13' W 000°43'911.2
2016-Sep-23 01:33N 50°04' W 000°38'1110.8
2016-Sep-23 00:33N 49°54' W 000°32'1110.8
2016-Sep-22 23:33N 49°44' W 000°27'28 9.2
2016-Sep-22 20:33N 49°17' W 000°15'9712.1
2016-Sep-22 12:33N 50°49' W 001°06'9712.1
2016-Sep-22 04:34N 49°17' W 000°15'1313.1
2016-Sep-22 03:33N 49°30' W 000°19'4013.3
2016-Sep-22 00:33N 50°07' W 000°45'1212.5
2016-Sep-21 23:33N 50°19' W 000°49'1414.0
2016-Sep-21 22:34N 50°32' W 000°56'18 5.9
2016-Sep-21 19:33N 50°49' W 001°06'20 6.6
2016-Sep-21 16:33N 50°30' W 000°55'7711.0
2016-Sep-21 09:33N 49°17' W 000°15'0 0.0
2016-Sep-21 08:34N 49°17' W 000°15'0 0.0
2016-Sep-21 05:33N 49°17' W 000°15'2412.1
2016-Sep-21 03:34N 49°41' W 000°25'1615.9
2016-Sep-21 02:34N 49°56' W 000°32'16 1.8
2016-Sep-20 17:33N 50°10' W 000°43'5618.7
2016-Sep-20 14:33N 49°18' W 000°15'0 0.2
2016-Sep-20 13:33N 49°17' W 000°15'3913.0
2016-Sep-20 10:33N 49°54' W 000°36'4120.7
2016-Sep-20 08:33N 50°33' W 000°55'1616.0
2016-Sep-20 07:33N 50°48' W 001°07'1 1.2
2016-Sep-20 06:33N 50°49' W 001°06'35 8.7
2016-Sep-20 02:33N 50°16' W 000°46'3511.8
2016-Sep-19 23:33N 49°43' W 000°26'27 6.7
2016-Sep-19 19:33N 49°17' W 000°15'1212.4
2016-Sep-19 18:33N 49°29' W 000°19'3819.1
2016-Sep-19 16:33N 50°05' W 000°42'3919.4
2016-Sep-19 14:34N 50°41' W 001°01'8 7.7
2016-Sep-19 13:33N 50°49' W 001°06'0 0.0
2016-Sep-19 12:33N 50°49' W 001°06'7 7.0
2016-Sep-19 11:33N 50°42' W 001°02'3819.1
2016-Sep-19 09:33N 50°07' W 000°38'3718.5
2016-Sep-19 07:33N 49°32' W 000°21'1515.0
2016-Sep-19 06:33N 49°17' W 000°15'19 6.4
2016-Sep-19 03:33N 49°36' W 000°22'1616.1
2016-Sep-19 02:33N 49°51' W 000°31'3718.3
2016-Sep-19 00:33N 50°26' W 000°51'10 1.9
2016-Sep-18 19:33N 50°16' W 000°50'5914.8
2016-Sep-18 15:33N 49°21' W 000°15'3 3.0
2016-Sep-18 14:33N 49°18' W 000°15'39 9.7
2016-Sep-18 10:33N 49°55' W 000°34'2220.4
2016-Sep-18 09:28N 50°16' W 000°46'3 0.4
2016-Sep-18 02:30N 50°13' W 000°47'1111.9
2016-Sep-18 01:33N 50°03' W 000°39'1211.8
2016-Sep-18 00:33N 49°52' W 000°32'2210.8
2016-Sep-17 22:33N 49°32' W 000°21'9 9.3
2016-Sep-17 21:33N 49°24' W 000°16'6 6.3
2016-Sep-17 20:33N 49°17' W 000°15'0 0.1
2016-Sep-17 19:16N 49°17' W 000°15'9717.0
2016-Sep-17 13:34N 50°49' W 001°06'0 0.0
2016-Sep-17 12:34N 50°49' W 001°06'  

Dump ship's entire track history